This is the latest recevied weather packets stored in our database for station/object KQ4DLB-13. If no packets are shown the sender has not sent any weather packets the latest 10 day(s).
| Time | Temp. | Humidity | Pressure | Rain* | Wind** | Luminosity | Snow |
|---|---|---|---|---|---|---|---|
| 1777321203 | 27.22° C | 60% | 987.4 hPa | 0 mm | - | 384 W/m² | - |
| 1777320902 | 27.78° C | 61% | 987.4 hPa | 0 mm | - | 376 W/m² | - |
| 1777320602 | 27.78° C | 59% | 987.5 hPa | 0 mm | - | 547 W/m² | - |
| 1777320302 | 27.78° C | 59% | 987.5 hPa | 0 mm | - | 605 W/m² | - |
| 1777320002 | 27.78° C | 59% | 987.6 hPa | 0 mm | - | 654 W/m² | - |
| 1777319702 | 27.78° C | 58% | 987.7 hPa | 0 mm | - | 732 W/m² | - |
| 1777319402 | 27.78° C | 59% | 987.7 hPa | 0 mm | - | 779 W/m² | - |
| 1777319102 | 27.78° C | 59% | 987.8 hPa | 0 mm | - | 789 W/m² | - |
| 1777318802 | 27.78° C | 59% | 988.1 hPa | 0 mm | - | 834 W/m² | - |
| 1777318503 | 27.22° C | 60% | 988.1 hPa | 0 mm | - | 882 W/m² | - |
| 1777318203 | 27.22° C | 60% | 988.1 hPa | 0 mm | - | 546 W/m² | - |
| 1777317902 | 27.78° C | 60% | 988.3 hPa | 0 mm | - | 666 W/m² | - |
| 1777317603 | 27.78° C | 59% | 988.3 hPa | 0 mm | - | 597 W/m² | - |
| 1777317302 | 27.22° C | 62% | 988.5 hPa | 0 mm | - | 732 W/m² | - |
| 1777317002 | 26.67° C | 62% | 988.6 hPa | 0 mm | - | 651 W/m² | - |
| 1777316702 | 26.67° C | 62% | 988.4 hPa | 0 mm | - | 274 W/m² | - |
| 1777316403 | 26.67° C | 61% | 988.4 hPa | 0 mm | - | 268 W/m² | - |
| 1777316103 | 26.67° C | 61% | 988.5 hPa | 0 mm | - | 226 W/m² | - |
| 1777315802 | 27.22° C | 60% | 988.7 hPa | 0 mm | - | 226 W/m² | - |
| 1777315502 | 27.22° C | 60% | 988.8 hPa | 0 mm | - | 251 W/m² | - |
| 1777315202 | 27.22° C | 60% | 988.9 hPa | 0 mm | - | 360 W/m² | - |
| 1777314902 | 27.22° C | 61% | 988.8 hPa | 0 mm | - | 479 W/m² | - |
| 1777314602 | 27.22° C | 60% | 988.9 hPa | 0 mm | - | 386 W/m² | - |
| 1777314302 | 27.22° C | 60% | 989 hPa | 0 mm | - | 764 W/m² | - |
| 1777314002 | 27.22° C | 60% | 988.8 hPa | 0 mm | - | 555 W/m² | - |
* Rain latest hour (hover to see other rain measurements)
** Current wind speed in m/s (hover to see current wind gust speed)